Time;durP1;ratioP1;P1;durP2;ratioP2;P2;SDS_P1;SDS_P2;PMS_P1;PMS_P2;Temp;Humidity;BMP_temperature;BMP_pressure;BME280_temperature;BME280_humidity;BME280_pressure;Samples;Min_cycle;Max_cycle;Signal;HPM_P1;HPM_P2
2021/11/04 00:01:43;;;;;;;17.40;11.45;;;;;;;;;;4952253;29;20528;-78
2021/11/04 00:04:09;;;;;;;14.18;11.65;;;;;;;;;;4951826;29;20574;-78
2021/11/04 00:06:34;;;;;;;14.10;10.13;;;;;;;;;;4952397;29;20397;-77
2021/11/04 00:09:00;;;;;;;13.73;10.30;;;;;;;;;;4953149;29;20082;-77
2021/11/04 00:11:25;;;;;;;14.23;9.45;;;;;;;;;;4955319;29;20043;-78
2021/11/04 00:13:51;;;;;;;15.15;10.13;;;;;;;;;;4954397;29;20046;-77
2021/11/04 00:16:16;;;;;;;14.32;11.02;;;;;;;;;;4955083;29;20047;-78
2021/11/04 00:18:42;;;;;;;13.00;9.45;;;;;;;;;;4955479;29;20132;-76
2021/11/04 00:21:07;;;;;;;12.02;10.05;;;;;;;;;;4952641;29;20070;-76
2021/11/04 00:23:33;;;;;;;13.45;9.38;;;;;;;;;;4953681;29;20093;-76
2021/11/04 00:25:59;;;;;;;13.02;9.27;;;;;;;;;;4954703;29;20047;-77
2021/11/04 00:28:25;;;;;;;15.15;10.77;;;;;;;;;;4952827;29;20043;-77
2021/11/04 00:30:51;;;;;;;14.70;10.07;;;;;;;;;;4953750;29;20039;-78
2021/11/04 00:33:16;;;;;;;13.40;10.85;;;;;;;;;;4953291;29;20101;-79
2021/11/04 00:35:42;;;;;;;17.17;11.02;;;;;;;;;;4952886;28;20043;-77
2021/11/04 00:38:07;;;;;;;14.27;10.80;;;;;;;;;;4954815;29;20051;-78
2021/11/04 00:40:33;;;;;;;13.32;11.43;;;;;;;;;;4953314;29;20182;-77
2021/11/04 00:42:59;;;;;;;13.25;9.80;;;;;;;;;;4953771;29;20051;-77
2021/11/04 00:45:24;;;;;;;14.68;11.05;;;;;;;;;;4951432;29;20086;-77
2021/11/04 00:47:51;;;;;;;21.67;10.95;;;;;;;;;;4953309;29;20047;-77
2021/11/04 00:50:17;;;;;;;16.60;10.07;;;;;;;;;;4953899;29;20054;-79
2021/11/04 00:52:43;;;;;;;13.07;9.75;;;;;;;;;;4937397;29;20102;-75
2021/11/04 00:55:09;;;;;;;14.15;10.30;;;;;;;;;;4953567;29;20043;-76
2021/11/04 00:57:35;;;;;;;14.88;10.63;;;;;;;;;;4954301;29;20094;-77
2021/11/04 01:00:07;;;;;;;12.60;9.82;;;;;;;;;;4954342;29;20070;-77
2021/11/04 01:02:33;;;;;;;14.52;9.95;;;;;;;;;;4953716;29;20051;-78
2021/11/04 01:04:58;;;;;;;13.43;10.23;;;;;;;;;;4954139;29;20122;-77
2021/11/04 01:07:24;;;;;;;14.95;10.90;;;;;;;;;;4949856;29;20122;-77
2021/11/04 01:09:49;;;;;;;13.48;10.18;;;;;;;;;;4952846;29;20046;-78
2021/11/04 01:12:15;;;;;;;14.32;10.13;;;;;;;;;;4953201;29;20500;-77
2021/11/04 01:14:41;;;;;;;13.93;10.40;;;;;;;;;;4954025;29;20071;-76
2021/11/04 01:17:06;;;;;;;14.02;10.45;;;;;;;;;;4953518;29;20047;-76
2021/11/04 01:19:32;;;;;;;14.77;10.75;;;;;;;;;;4952975;29;20051;-78
2021/11/04 01:21:58;;;;;;;15.18;11.32;;;;;;;;;;4953507;29;20050;-77
2021/11/04 01:24:23;;;;;;;16.55;10.50;;;;;;;;;;4952399;29;20051;-77
2021/11/04 01:26:49;;;;;;;14.80;10.82;;;;;;;;;;4952726;29;20051;-76
2021/11/04 01:29:14;;;;;;;18.08;11.13;;;;;;;;;;4953286;29;20079;-76
2021/11/04 01:31:40;;;;;;;13.82;11.02;;;;;;;;;;4950240;29;20060;-76
2021/11/04 01:34:06;;;;;;;14.60;10.43;;;;;;;;;;4953020;29;20043;-77
2021/11/04 01:36:32;;;;;;;14.05;10.68;;;;;;;;;;4952277;29;20043;-77
2021/11/04 01:38:58;;;;;;;17.15;12.88;;;;;;;;;;4952825;29;20427;-76
2021/11/04 01:41:23;;;;;;;15.85;10.38;;;;;;;;;;4953262;29;20532;-76
2021/11/04 01:43:49;;;;;;;13.70;10.70;;;;;;;;;;4953767;29;20046;-76
2021/11/04 01:46:19;;;;;;;12.10;10.32;;;;;;;;;;4952614;28;20114;-77
2021/11/04 01:48:45;;;;;;;14.02;10.18;;;;;;;;;;4953790;29;20555;-78
2021/11/04 01:51:10;;;;;;;13.23;9.88;;;;;;;;;;4953779;29;20130;-76
2021/11/04 01:53:36;;;;;;;14.63;11.10;;;;;;;;;;4952522;29;20035;-78
2021/11/04 01:56:02;;;;;;;12.35;9.68;;;;;;;;;;4933722;29;20043;-77
2021/11/04 01:58:27;;;;;;;13.00;9.90;;;;;;;;;;4952708;29;20049;-78
2021/11/04 02:00:54;;;;;;;15.65;9.82;;;;;;;;;;4952524;29;20046;-78
2021/11/04 02:03:38;;;;;;;13.05;9.75;;;;;;;;;;4953284;29;20043;-78
2021/11/04 02:06:22;;;;;;;12.90;8.85;;;;;;;;;;4952166;29;20078;-78
2021/11/04 02:09:00;;;;;;;11.05;8.68;;;;;;;;;;4952453;29;20575;-78
2021/11/04 02:11:38;;;;;;;12.43;9.63;;;;;;;;;;4952982;29;20043;-77
2021/11/04 02:14:13;;;;;;;10.82;8.77;;;;;;;;;;4934823;29;20054;-76
2021/11/04 02:16:41;;;;;;;12.02;9.02;;;;;;;;;;4952340;29;20043;-75
2021/11/04 02:19:16;;;;;;;10.27;8.43;;;;;;;;;;4933388;29;20051;-78
2021/11/04 02:22:00;;;;;;;11.00;8.63;;;;;;;;;;4952868;29;20051;-77
2021/11/04 02:24:32;;;;;;;10.63;8.60;;;;;;;;;;4952453;29;20082;-77
2021/11/04 02:26:59;;;;;;;9.98;7.80;;;;;;;;;;4952804;29;20051;-77
2021/11/04 02:29:25;;;;;;;16.30;8.82;;;;;;;;;;4952356;29;20043;-77
2021/11/04 02:31:51;;;;;;;12.48;9.05;;;;;;;;;;4935927;29;20054;-76
2021/11/04 02:34:17;;;;;;;13.02;9.55;;;;;;;;;;4952836;29;20051;-75
2021/11/04 02:36:44;;;;;;;11.55;8.50;;;;;;;;;;4952280;29;20126;-78
2021/11/04 02:39:12;;;;;;;12.80;8.40;;;;;;;;;;4952852;29;20043;-76
2021/11/04 02:41:37;;;;;;;12.35;9.45;;;;;;;;;;4950201;29;20106;-78
2021/11/04 02:44:08;;;;;;;9.27;8.27;;;;;;;;;;4951668;29;20051;-78
2021/11/04 02:46:35;;;;;;;12.90;8.80;;;;;;;;;;4934733;29;20046;-76
2021/11/04 02:49:02;;;;;;;9.55;8.02;;;;;;;;;;4932237;29;20065;-76
2021/11/04 02:51:28;;;;;;;12.43;10.38;;;;;;;;;;4915880;29;20050;-77
2021/11/04 02:53:54;;;;;;;12.25;7.90;;;;;;;;;;4932421;29;20048;-78
2021/11/04 02:56:19;;;;;;;9.88;8.23;;;;;;;;;;4916678;29;20050;-77
2021/11/04 02:58:45;;;;;;;12.20;7.57;;;;;;;;;;4917712;29;20413;-79
2021/11/04 03:01:10;;;;;;;9.60;8.15;;;;;;;;;;4936542;29;20533;-75
2021/11/04 03:03:36;;;;;;;10.30;7.43;;;;;;;;;;4936966;29;20078;-76
2021/11/04 03:06:02;;;;;;;10.30;7.25;;;;;;;;;;4934142;29;20064;-77
2021/11/04 03:08:27;;;;;;;10.23;7.47;;;;;;;;;;4935916;29;20051;-77
2021/11/04 03:10:53;;;;;;;10.30;8.38;;;;;;;;;;4937039;29;20040;-75
2021/11/04 03:13:19;;;;;;;10.30;7.25;;;;;;;;;;4937263;29;20048;-77
2021/11/04 03:15:49;;;;;;;10.35;7.22;;;;;;;;;;4935952;29;20040;-77
2021/11/04 03:18:15;;;;;;;10.90;8.00;;;;;;;;;;4920381;29;20114;-77
2021/11/04 03:20:41;;;;;;;11.05;7.90;;;;;;;;;;4937196;29;20479;-77
2021/11/04 03:23:08;;;;;;;10.68;7.85;;;;;;;;;;4934952;29;20070;-78
2021/11/04 03:25:34;;;;;;;8.57;7.47;;;;;;;;;;4935608;29;20048;-78
2021/11/04 03:28:02;;;;;;;10.43;7.65;;;;;;;;;;4934445;29;20051;-78
2021/11/04 03:30:35;;;;;;;8.75;7.07;;;;;;;;;;4935468;29;20040;-76
2021/11/04 03:33:01;;;;;;;10.02;8.13;;;;;;;;;;4937201;29;20055;-78
2021/11/04 03:35:30;;;;;;;11.10;8.70;;;;;;;;;;4935734;29;20044;-76
2021/11/04 03:37:59;;;;;;;11.25;7.88;;;;;;;;;;4935569;29;20044;-77
2021/11/04 03:40:26;;;;;;;8.68;6.78;;;;;;;;;;4936788;29;20055;-76
2021/11/04 03:42:52;;;;;;;9.00;6.47;;;;;;;;;;4936246;29;20465;-76
2021/11/04 03:45:18;;;;;;;9.52;7.03;;;;;;;;;;4935953;29;20075;-78
2021/11/04 03:47:44;;;;;;;12.98;8.93;;;;;;;;;;4926365;29;20127;-73
2021/11/04 03:50:12;;;;;;;12.02;9.07;;;;;;;;;;4937884;29;20090;-77
2021/11/04 03:52:42;;;;;;;12.95;8.55;;;;;;;;;;4949226;29;20056;-77
2021/11/04 03:55:10;;;;;;;12.52;9.45;;;;;;;;;;4943869;29;20062;-77
2021/11/04 03:57:39;;;;;;;14.30;10.15;;;;;;;;;;4945406;28;20043;-78
2021/11/04 04:00:10;;;;;;;13.65;9.82;;;;;;;;;;4926734;29;20138;-79
2021/11/04 04:02:35;;;;;;;11.45;8.50;;;;;;;;;;4942753;29;20051;-78
2021/11/04 04:05:01;;;;;;;10.60;8.82;;;;;;;;;;4944524;29;20178;-78
2021/11/04 04:07:31;;;;;;;9.82;8.55;;;;;;;;;;4950495;28;20051;-78
2021/11/04 04:09:57;;;;;;;11.05;8.52;;;;;;;;;;4955082;28;20047;-72
2021/11/04 04:12:23;;;;;;;12.30;7.93;;;;;;;;;;4953341;28;20571;-72
2021/11/04 04:14:49;;;;;;;9.93;7.70;;;;;;;;;;4952459;28;20127;-73
2021/11/04 04:17:16;;;;;;;12.05;7.55;;;;;;;;;;4953687;28;20054;-73
2021/11/04 04:19:42;;;;;;;8.98;7.80;;;;;;;;;;4955033;29;20043;-77
2021/11/04 04:22:07;;;;;;;10.27;8.30;;;;;;;;;;4953752;28;20051;-78
2021/11/04 04:24:33;;;;;;;10.50;8.32;;;;;;;;;;4954251;28;20131;-78
2021/11/04 04:27:03;;;;;;;9.57;7.88;;;;;;;;;;4955770;28;20043;-79
2021/11/04 04:29:29;;;;;;;11.00;8.75;;;;;;;;;;4937478;29;20071;-77
2021/11/04 04:31:54;;;;;;;10.80;8.13;;;;;;;;;;4954990;28;20043;-77
2021/11/04 04:34:20;;;;;;;11.73;8.60;;;;;;;;;;4953370;28;20045;-79
2021/11/04 04:36:45;;;;;;;11.30;8.40;;;;;;;;;;4953955;28;20049;-78
2021/11/04 04:39:11;;;;;;;10.10;8.93;;;;;;;;;;4952189;28;20512;-77
2021/11/04 04:41:37;;;;;;;9.60;8.02;;;;;;;;;;4953736;28;20050;-77
2021/11/04 04:44:02;;;;;;;11.77;8.48;;;;;;;;;;4952700;29;20089;-78
2021/11/04 04:46:28;;;;;;;10.80;9.43;;;;;;;;;;4954007;28;20046;-79
2021/11/04 04:48:53;;;;;;;11.75;8.52;;;;;;;;;;4954703;29;20051;-79
2021/11/04 04:51:19;;;;;;;11.07;8.70;;;;;;;;;;4954238;29;20064;-80
2021/11/04 04:53:45;;;;;;;14.40;8.43;;;;;;;;;;4955145;29;20101;-79
2021/11/04 04:56:10;;;;;;;13.65;9.13;;;;;;;;;;4954377;29;20106;-78
2021/11/04 04:58:36;;;;;;;13.45;9.05;;;;;;;;;;4953920;29;20039;-79
2021/11/04 05:01:02;;;;;;;13.13;9.50;;;;;;;;;;4953652;29;20067;-76
2021/11/04 05:03:27;;;;;;;12.05;9.13;;;;;;;;;;4951547;29;20042;-78
2021/11/04 05:05:53;;;;;;;13.23;9.20;;;;;;;;;;4952633;29;20055;-72
2021/11/04 05:08:18;;;;;;;12.00;10.00;;;;;;;;;;4953285;29;20572;-72
2021/11/04 05:10:44;;;;;;;11.05;8.57;;;;;;;;;;4952791;29;20195;-72
2021/11/04 05:13:10;;;;;;;11.80;8.52;;;;;;;;;;4953379;29;20519;-78
2021/11/04 05:15:35;;;;;;;11.85;8.57;;;;;;;;;;4935894;29;20501;-77
2021/11/04 05:18:01;;;;;;;11.55;8.13;;;;;;;;;;4953183;29;20039;-76
2021/11/04 05:20:26;;;;;;;11.25;8.60;;;;;;;;;;4950483;28;20050;-78
2021/11/04 05:22:52;;;;;;;11.82;8.13;;;;;;;;;;4951628;29;20035;-78
2021/11/04 05:25:18;;;;;;;9.75;7.82;;;;;;;;;;4951705;29;20047;-78
2021/11/04 05:27:49;;;;;;;10.10;6.80;;;;;;;;;;4952702;29;20394;-77
2021/11/04 05:30:17;;;;;;;10.57;7.90;;;;;;;;;;4953901;29;20047;-76
2021/11/04 05:32:42;;;;;;;10.82;8.93;;;;;;;;;;4946691;28;20058;-78
2021/11/04 05:35:08;;;;;;;9.13;7.55;;;;;;;;;;4940129;29;20735;-82
2021/11/04 05:37:33;;;;;;;9.48;7.35;;;;;;;;;;4933807;29;20040;-79
2021/11/04 05:39:59;;;;;;;12.20;7.32;;;;;;;;;;4934031;29;20567;-77
2021/11/04 05:42:24;;;;;;;9.32;7.38;;;;;;;;;;4932069;29;20054;-79
2021/11/04 05:44:50;;;;;;;9.60;6.85;;;;;;;;;;4932842;29;20417;-78
2021/11/04 05:47:16;;;;;;;9.20;6.82;;;;;;;;;;4937430;29;20500;-80
2021/11/04 05:49:42;;;;;;;9.35;6.43;;;;;;;;;;4947662;28;20457;-77
2021/11/04 05:52:07;;;;;;;10.15;7.75;;;;;;;;;;4953722;29;20050;-77
2021/11/04 05:54:33;;;;;;;9.40;6.80;;;;;;;;;;4952803;29;20210;-77
2021/11/04 05:56:58;;;;;;;8.15;6.47;;;;;;;;;;4952965;28;20043;-78
2021/11/04 05:59:24;;;;;;;8.25;7.10;;;;;;;;;;4953579;28;20062;-78
2021/11/04 06:01:49;;;;;;;7.30;6.55;;;;;;;;;;4952534;29;20408;-78
2021/11/04 06:04:15;;;;;;;6.57;5.22;;;;;;;;;;4950804;28;20105;-78
2021/11/04 06:06:40;;;;;;;6.07;5.45;;;;;;;;;;4950959;28;20420;-77
2021/11/04 06:09:06;;;;;;;7.05;5.57;;;;;;;;;;4912783;29;20060;-77
2021/11/04 06:11:32;;;;;;;6.38;5.78;;;;;;;;;;4922318;29;20070;-78
2021/11/04 06:13:57;;;;;;;6.22;4.95;;;;;;;;;;4940029;29;20039;-76
2021/11/04 06:16:22;;;;;;;5.97;5.05;;;;;;;;;;4941953;28;20054;-76
2021/11/04 06:18:52;;;;;;;4.43;3.60;;;;;;;;;;4948243;29;20401;-78
2021/11/04 06:21:17;;;;;;;5.47;4.88;;;;;;;;;;4952325;28;20047;-78
2021/11/04 06:23:43;;;;;;;6.70;5.10;;;;;;;;;;4951854;28;20536;-79
2021/11/04 06:26:09;;;;;;;5.30;4.55;;;;;;;;;;4952237;28;20114;-77
2021/11/04 06:28:34;;;;;;;6.25;5.38;;;;;;;;;;4951979;28;20047;-78
2021/11/04 06:31:00;;;;;;;6.90;4.68;;;;;;;;;;4952860;28;20058;-76
2021/11/04 06:33:25;;;;;;;5.93;4.80;;;;;;;;;;4952524;28;20043;-78
2021/11/04 06:35:54;;;;;;;6.35;5.63;;;;;;;;;;4950279;28;20113;-78
2021/11/04 06:38:21;;;;;;;6.22;4.95;;;;;;;;;;4938174;29;20040;-77
2021/11/04 06:40:47;;;;;;;6.65;6.05;;;;;;;;;;4933305;29;20043;-76
2021/11/04 06:43:12;;;;;;;6.30;5.43;;;;;;;;;;4915809;29;20040;-75
2021/11/04 06:45:45;;;;;;;6.85;5.88;;;;;;;;;;4916890;29;20497;-77
2021/11/04 06:48:16;;;;;;;7.15;5.90;;;;;;;;;;4943533;29;20043;-75
2021/11/04 06:50:45;;;;;;;6.50;5.88;;;;;;;;;;4952656;29;20572;-75
2021/11/04 06:53:11;;;;;;;9.13;6.72;;;;;;;;;;4933204;29;20530;-77
2021/11/04 06:55:43;;;;;;;9.90;6.50;;;;;;;;;;4935865;29;20170;-77
2021/11/04 06:58:14;;;;;;;8.68;7.07;;;;;;;;;;4933119;29;20043;-76
2021/11/04 07:00:44;;;;;;;8.15;7.20;;;;;;;;;;4929945;29;20043;-79
2021/11/04 07:03:21;;;;;;;;;;;;;;;;;;4931169;29;20048;-77
2021/11/04 07:05:47;;;;;;;8.25;6.50;;;;;;;;;;4933240;29;19958;-80
2021/11/04 07:08:22;;;;;;;8.02;6.63;;;;;;;;;;4931929;29;20071;-78
2021/11/04 07:10:48;;;;;;;6.22;5.43;;;;;;;;;;4930909;29;20127;-78
2021/11/04 07:13:14;;;;;;;7.90;6.53;;;;;;;;;;4932811;29;20138;-78
2021/11/04 07:15:42;;;;;;;9.20;7.47;;;;;;;;;;4932625;29;20063;-78
2021/11/04 07:18:09;;;;;;;8.13;6.28;;;;;;;;;;4932240;29;20146;-77
2021/11/04 07:20:37;;;;;;;8.65;6.97;;;;;;;;;;4932508;29;20043;-78
2021/11/04 07:23:03;;;;;;;7.28;6.30;;;;;;;;;;4931160;29;20528;-78
2021/11/04 07:25:29;;;;;;;8.05;6.05;;;;;;;;;;4931246;29;20044;-77
2021/11/04 07:27:59;;;;;;;16.27;6.05;;;;;;;;;;4932946;29;20039;-78
2021/11/04 07:30:27;;;;;;;7.63;5.80;;;;;;;;;;4933150;29;20488;-77
2021/11/04 07:32:56;;;;;;;9.25;6.53;;;;;;;;;;4915102;29;20103;-78
2021/11/04 07:35:24;;;;;;;7.93;6.65;;;;;;;;;;4932710;29;20051;-78
2021/11/04 07:37:50;;;;;;;8.50;6.45;;;;;;;;;;4933465;29;20485;-77
2021/11/04 07:40:18;;;;;;;8.45;7.03;;;;;;;;;;4931054;29;20062;-78
2021/11/04 07:42:45;;;;;;;8.85;6.57;;;;;;;;;;4931939;29;20048;-77
2021/11/04 07:45:12;;;;;;;11.63;6.57;;;;;;;;;;4933207;29;20142;-76
2021/11/04 07:47:40;;;;;;;10.68;7.28;;;;;;;;;;4939784;29;20134;-78
2021/11/04 07:50:07;;;;;;;11.68;7.82;;;;;;;;;;4955401;29;20035;-79
2021/11/04 07:52:34;;;;;;;14.88;8.55;;;;;;;;;;4938845;29;20158;-78
2021/11/04 07:55:01;;;;;;;11.50;7.40;;;;;;;;;;4932233;29;20149;-79
2021/11/04 07:57:28;;;;;;;9.75;6.38;;;;;;;;;;4935863;29;20461;-78
2021/11/04 07:59:53;;;;;;;11.18;7.15;;;;;;;;;;4935191;29;20082;-78
2021/11/04 08:02:18;;;;;;;11.60;8.15;;;;;;;;;;4935705;29;20040;-78
2021/11/04 08:04:44;;;;;;;11.35;7.05;;;;;;;;;;4935909;29;20036;-80
2021/11/04 08:07:09;;;;;;;9.13;6.53;;;;;;;;;;4936293;29;20071;-79
2021/11/04 08:09:35;;;;;;;11.85;6.57;;;;;;;;;;4934715;29;20031;-77
2021/11/04 08:12:00;;;;;;;9.82;6.35;;;;;;;;;;4935530;29;20039;-77
2021/11/04 08:14:26;;;;;;;9.38;6.28;;;;;;;;;;4936344;29;20063;-77
2021/11/04 08:16:52;;;;;;;5.13;4.45;;;;;;;;;;4935739;29;20072;-79
2021/11/04 08:19:17;;;;;;;9.75;5.85;;;;;;;;;;4935461;29;20485;-80
2021/11/04 08:21:43;;;;;;;7.35;6.07;;;;;;;;;;4936264;29;20118;-78
2021/11/04 08:24:08;;;;;;;6.07;5.15;;;;;;;;;;4935963;29;20424;-77
2021/11/04 08:26:34;;;;;;;7.82;6.13;;;;;;;;;;4936059;29;20051;-78
2021/11/04 08:29:01;;;;;;;9.57;6.15;;;;;;;;;;4936574;29;20051;-78
2021/11/04 08:31:28;;;;;;;8.25;5.95;;;;;;;;;;4936307;29;20040;-77
2021/11/04 08:33:54;;;;;;;7.10;5.03;;;;;;;;;;4934543;29;20074;-77
2021/11/04 08:36:19;;;;;;;28.20;7.75;;;;;;;;;;4936493;29;20458;-81
2021/11/04 08:38:46;;;;;;;6.70;5.13;;;;;;;;;;4936306;29;20044;-77
2021/11/04 08:41:11;;;;;;;11.02;5.53;;;;;;;;;;4932000;29;20123;-78
2021/11/04 08:43:36;;;;;;;7.25;5.78;;;;;;;;;;4936363;29;20139;-79
2021/11/04 08:46:02;;;;;;;8.25;5.55;;;;;;;;;;4935974;29;20055;-78
2021/11/04 08:48:28;;;;;;;9.75;5.43;;;;;;;;;;4949411;29;20486;-78
2021/11/04 08:50:53;;;;;;;7.68;5.40;;;;;;;;;;4955236;29;20536;-78
2021/11/04 08:53:19;;;;;;;10.30;6.35;;;;;;;;;;4955220;29;20074;-77
2021/11/04 08:55:44;;;;;;;10.07;6.30;;;;;;;;;;4955007;28;20051;-79
2021/11/04 08:58:10;;;;;;;7.72;5.93;;;;;;;;;;4955018;29;20046;-77
2021/11/04 09:00:36;;;;;;;10.75;6.20;;;;;;;;;;4955069;29;20043;-80
2021/11/04 09:03:02;;;;;;;7.10;5.88;;;;;;;;;;4950781;29;20051;-78
2021/11/04 09:05:27;;;;;;;7.38;5.80;;;;;;;;;;4954638;29;20583;-78
2021/11/04 09:07:52;;;;;;;6.72;5.57;;;;;;;;;;4954891;29;20535;-76
2021/11/04 09:10:20;;;;;;;7.57;5.53;;;;;;;;;;4954459;29;20590;-77
2021/11/04 09:12:46;;;;;;;6.75;5.10;;;;;;;;;;4937189;29;20082;-77
2021/11/04 09:15:12;;;;;;;5.53;5.03;;;;;;;;;;4954012;29;20114;-78
2021/11/04 09:17:38;;;;;;;5.82;5.00;;;;;;;;;;4954204;29;20109;-78
2021/11/04 09:20:05;;;;;;;6.53;5.30;;;;;;;;;;4954721;29;20051;-78
2021/11/04 09:22:31;;;;;;;6.97;5.13;;;;;;;;;;4954406;29;20062;-78
2021/11/04 09:24:57;;;;;;;6.63;5.07;;;;;;;;;;4936575;29;20039;-77
2021/11/04 09:27:23;;;;;;;5.78;4.32;;;;;;;;;;4950463;29;20055;-77
2021/11/04 09:29:50;;;;;;;6.20;4.25;;;;;;;;;;4954309;29;20061;-78
2021/11/04 09:32:15;;;;;;;5.72;3.75;;;;;;;;;;4936744;29;20054;-78
2021/11/04 09:34:41;;;;;;;5.60;5.10;;;;;;;;;;4954405;29;20043;-78
2021/11/04 09:37:07;;;;;;;6.50;4.63;;;;;;;;;;4954074;29;20051;-78
2021/11/04 09:39:33;;;;;;;4.07;3.78;;;;;;;;;;4953600;29;20043;-76
2021/11/04 09:41:59;;;;;;;6.13;4.18;;;;;;;;;;4954090;29;20102;-79
2021/11/04 09:44:25;;;;;;;4.10;3.55;;;;;;;;;;4953939;29;20055;-78
2021/11/04 09:46:50;;;;;;;3.80;3.40;;;;;;;;;;4953648;29;20459;-78
2021/11/04 09:49:16;;;;;;;8.02;3.70;;;;;;;;;;4954225;29;20074;-77
2021/11/04 09:51:42;;;;;;;4.13;3.55;;;;;;;;;;4951050;29;20081;-77
2021/11/04 09:54:27;;;;;;;3.50;3.30;;;;;;;;;;4954378;28;20062;-77
2021/11/04 09:56:52;;;;;;;3.47;3.17;;;;;;;;;;4953583;29;20042;-77
2021/11/04 09:59:18;;;;;;;4.20;3.67;;;;;;;;;;4953670;29;20139;-77
2021/11/04 10:01:46;;;;;;;5.95;5.22;;;;;;;;;;4953359;29;20667;-76
2021/11/04 10:04:12;;;;;;;4.55;3.63;;;;;;;;;;4953632;29;20070;-80
2021/11/04 10:06:39;;;;;;;3.67;3.38;;;;;;;;;;4936157;29;20500;-77
2021/11/04 10:09:09;;;;;;;3.83;3.35;;;;;;;;;;4952583;29;20799;-77
2021/11/04 10:11:42;;;;;;;4.60;4.13;;;;;;;;;;4936511;29;20527;-78
2021/11/04 10:14:10;;;;;;;3.83;3.47;;;;;;;;;;4949745;29;20098;-78
2021/11/04 10:16:36;;;;;;;5.75;4.70;;;;;;;;;;4935736;29;20066;-77
2021/11/04 10:19:08;;;;;;;4.88;3.55;;;;;;;;;;4953266;29;20061;-78
2021/11/04 10:21:35;;;;;;;5.22;4.20;;;;;;;;;;4953353;29;20039;-78
2021/11/04 10:24:02;;;;;;;4.68;3.75;;;;;;;;;;4953132;29;20111;-77
2021/11/04 10:26:36;;;;;;;4.10;3.78;;;;;;;;;;4953412;29;20138;-78
2021/11/04 10:29:10;;;;;;;5.32;4.28;;;;;;;;;;4936027;29;20058;-77
2021/11/04 10:31:41;;;;;;;4.80;3.75;;;;;;;;;;4952432;29;20119;-78
2021/11/04 10:34:23;;;;;;;8.10;4.70;;;;;;;;;;4951828;29;20085;-79
2021/11/04 10:36:49;;;;;;;5.85;4.57;;;;;;;;;;4950744;29;20098;-78
2021/11/04 10:39:14;;;;;;;5.45;4.50;;;;;;;;;;4953148;29;20043;-78
2021/11/04 10:41:43;;;;;;;5.43;4.20;;;;;;;;;;4953390;29;20460;-78
2021/11/04 10:44:16;;;;;;;6.88;4.13;;;;;;;;;;4953311;29;20436;-76
2021/11/04 10:46:47;;;;;;;6.32;5.57;;;;;;;;;;4935527;29;20043;-77
2021/11/04 10:49:14;;;;;;;6.85;5.57;;;;;;;;;;4915134;29;20530;-78
2021/11/04 10:51:40;;;;;;;6.80;5.07;;;;;;;;;;4915213;29;20506;-76
2021/11/04 10:54:10;;;;;;;6.75;5.28;;;;;;;;;;4914356;29;20138;-78
2021/11/04 10:56:41;;;;;;;6.43;5.32;;;;;;;;;;4915103;29;20044;-77
2021/11/04 10:59:10;;;;;;;8.40;5.97;;;;;;;;;;4915248;29;20072;-78
2021/11/04 11:01:44;;;;;;;6.75;5.68;;;;;;;;;;4911520;29;20182;-77
2021/11/04 11:04:18;;;;;;;7.93;6.82;;;;;;;;;;4915136;29;20051;-78
2021/11/04 11:06:47;;;;;;;8.68;6.40;;;;;;;;;;4915253;29;20421;-78
2021/11/04 11:09:21;;;;;;;7.63;6.72;;;;;;;;;;4914618;29;20040;-78
2021/11/04 11:11:50;;;;;;;9.15;6.75;;;;;;;;;;4914881;29;20048;-78
2021/11/04 11:14:18;;;;;;;6.93;5.38;;;;;;;;;;4914594;29;20413;-78
2021/11/04 11:16:48;;;;;;;8.90;6.57;;;;;;;;;;4914206;29;20540;-77
2021/11/04 11:19:44;;;;;;;6.78;5.60;;;;;;;;;;4915534;29;20526;-76
2021/11/04 11:22:16;;;;;;;7.68;6.68;;;;;;;;;;4905723;29;20052;-78
2021/11/04 11:24:44;;;;;;;7.13;5.97;;;;;;;;;;4915554;29;20040;-77
2021/11/04 11:27:12;;;;;;;7.05;4.88;;;;;;;;;;4918602;29;20403;-78
2021/11/04 11:29:41;;;;;;;11.43;7.05;;;;;;;;;;4917946;29;20044;-79
2021/11/04 11:32:20;;;;;;;7.75;6.95;;;;;;;;;;4918206;29;20495;-77
2021/11/04 11:34:46;;;;;;;7.68;5.38;;;;;;;;;;4918041;29;20131;-77
2021/11/04 11:37:20;;;;;;;5.55;5.03;;;;;;;;;;4916404;29;20130;-77
2021/11/04 11:39:54;;;;;;;6.13;5.45;;;;;;;;;;4900952;29;20055;-78
2021/11/04 11:42:21;;;;;;;5.50;4.97;;;;;;;;;;4918051;29;20047;-76
2021/11/04 11:45:00;;;;;;;5.85;5.05;;;;;;;;;;4917729;29;20059;-77
2021/11/04 11:47:29;;;;;;;6.95;6.00;;;;;;;;;;4926364;29;20039;-78
2021/11/04 11:50:14;;;;;;;6.50;5.82;;;;;;;;;;4938907;28;20512;-78
2021/11/04 11:52:52;;;;;;;5.63;5.10;;;;;;;;;;4938764;29;20042;-80
2021/11/04 11:55:35;;;;;;;6.78;5.50;;;;;;;;;;4955930;29;20049;-78
2021/11/04 11:58:37;;;;;;;7.07;5.32;;;;;;;;;;4956149;29;20066;-80
2021/11/04 12:01:19;;;;;;;6.57;5.25;;;;;;;;;;4955473;29;20054;-77
2021/11/04 12:03:47;;;;;;;7.22;6.63;;;;;;;;;;4955953;29;20453;-78
2021/11/04 12:06:16;;;;;;;6.50;5.15;;;;;;;;;;4956301;29;20075;-77
2021/11/04 12:08:57;;;;;;;5.38;4.88;;;;;;;;;;4955756;29;20094;-78
2021/11/04 12:11:35;;;;;;;6.22;4.95;;;;;;;;;;4952482;29;20054;-78
2021/11/04 12:14:15;;;;;;;4.72;4.28;;;;;;;;;;4954957;29;20043;-78
2021/11/04 12:16:59;;;;;;;5.20;4.68;;;;;;;;;;4955304;29;20098;-78
2021/11/04 12:19:50;;;;;;;4.65;4.13;;;;;;;;;;4955799;29;20521;-78
2021/11/04 12:22:18;;;;;;;10.75;4.85;;;;;;;;;;4955080;29;20504;-77
2021/11/04 12:24:54;;;;;;;4.93;3.50;;;;;;;;;;4955728;29;20094;-75
2021/11/04 12:27:21;;;;;;;9.18;4.53;;;;;;;;;;4955730;29;20137;-79
2021/11/04 12:29:51;;;;;;;4.72;4.32;;;;;;;;;;4954945;29;20039;-80
2021/11/04 12:32:20;;;;;;;3.47;3.17;;;;;;;;;;4955178;29;20079;-78
2021/11/04 12:35:04;;;;;;;3.85;3.40;;;;;;;;;;4950991;28;20043;-78
2021/11/04 12:37:33;;;;;;;7.13;3.75;;;;;;;;;;4954962;29;20091;-78
2021/11/04 12:40:07;;;;;;;2.97;2.65;;;;;;;;;;4955366;29;20408;-77
2021/11/04 12:42:32;;;;;;;5.45;3.72;;;;;;;;;;4955221;29;20083;-77
2021/11/04 12:44:58;;;;;;;3.22;2.83;;;;;;;;;;4954698;29;20126;-77
2021/11/04 12:47:28;;;;;;;4.32;3.65;;;;;;;;;;4955063;29;20054;-77
2021/11/04 12:49:54;;;;;;;3.25;2.85;;;;;;;;;;4955096;29;20483;-78
2021/11/04 12:52:22;;;;;;;4.43;4.03;;;;;;;;;;4954443;29;20047;-78
2021/11/04 12:54:53;;;;;;;3.60;3.30;;;;;;;;;;4955035;29;20130;-77
2021/11/04 12:57:23;;;;;;;3.58;3.33;;;;;;;;;;4934568;28;20071;-77
2021/11/04 12:59:50;;;;;;;4.32;3.85;;;;;;;;;;4954457;29;20137;-79
2021/11/04 13:02:30;;;;;;;4.45;3.92;;;;;;;;;;4954265;29;20124;-78
2021/11/04 13:04:58;;;;;;;4.72;4.18;;;;;;;;;;4954709;29;20043;-77
2021/11/04 13:07:28;;;;;;;3.65;2.85;;;;;;;;;;4954376;29;20453;-78
2021/11/04 13:10:03;;;;;;;5.60;4.82;;;;;;;;;;4937541;29;20552;-77
2021/11/04 13:12:42;;;;;;;4.45;4.05;;;;;;;;;;4954599;29;20050;-78
2021/11/04 13:15:21;;;;;;;6.82;4.28;;;;;;;;;;4954020;29;20043;-77
2021/11/04 13:17:55;;;;;;;4.78;3.67;;;;;;;;;;4953873;29;20415;-78
2021/11/04 13:20:35;;;;;;;5.13;4.07;;;;;;;;;;4954268;29;20580;-78
2021/11/04 13:23:03;;;;;;;6.35;4.45;;;;;;;;;;4950841;29;20106;-78
2021/11/04 13:25:32;;;;;;;5.40;3.92;;;;;;;;;;4954092;29;20520;-77
2021/11/04 13:28:10;;;;;;;5.75;4.07;;;;;;;;;;4953620;29;20039;-77
2021/11/04 13:30:40;;;;;;;4.05;3.65;;;;;;;;;;4954214;29;20047;-78
2021/11/04 13:33:06;;;;;;;3.70;3.40;;;;;;;;;;4936972;29;20067;-77
2021/11/04 13:35:35;;;;;;;4.35;3.95;;;;;;;;;;4953562;29;20523;-77
2021/11/04 13:38:20;;;;;;;5.05;4.55;;;;;;;;;;4953940;29;20043;-78
2021/11/04 13:41:06;;;;;;;4.75;4.18;;;;;;;;;;4954236;29;20067;-77
2021/11/04 13:43:41;;;;;;;8.27;4.35;;;;;;;;;;4952715;28;20051;-77
2021/11/04 13:46:18;;;;;;;5.30;4.03;;;;;;;;;;4950190;29;20047;-78
2021/11/04 13:48:46;;;;;;;4.80;3.88;;;;;;;;;;4954109;29;20047;-78
2021/11/04 13:51:28;;;;;;;4.88;4.18;;;;;;;;;;4953690;29;20044;-77
2021/11/04 13:54:14;;;;;;;;;;;;;;;;;;4954226;29;20043;-77
2021/11/04 13:56:48;;;;;;;4.22;3.78;;;;;;;;;;4953910;29;20043;-77
2021/11/04 13:59:32;;;;;;;4.57;4.15;;;;;;;;;;4953167;29;20083;-77
2021/11/04 14:02:02;;;;;;;4.28;3.47;;;;;;;;;;4953266;29;20043;-78
2021/11/04 14:04:27;;;;;;;3.97;3.67;;;;;;;;;;4953397;29;20563;-76
2021/11/04 14:06:53;;;;;;;4.47;3.63;;;;;;;;;;4952845;29;20047;-77
2021/11/04 14:09:25;;;;;;;3.63;3.00;;;;;;;;;;4950393;28;20043;-77
2021/11/04 14:12:05;;;;;;;3.45;3.15;;;;;;;;;;4936279;29;20062;-78
2021/11/04 14:14:43;;;;;;;3.92;3.63;;;;;;;;;;4953016;29;20058;-77
2021/11/04 14:17:09;;;;;;;3.67;2.90;;;;;;;;;;4936193;29;20440;-78
2021/11/04 14:19:35;;;;;;;3.13;2.83;;;;;;;;;;4935972;29;20047;-78
2021/11/04 14:22:01;;;;;;;7.80;3.03;;;;;;;;;;4952575;28;20047;-77
2021/11/04 14:24:28;;;;;;;4.22;2.85;;;;;;;;;;4952939;29;20054;-77
2021/11/04 14:26:54;;;;;;;3.38;3.10;;;;;;;;;;4953422;29;20133;-78
2021/11/04 14:29:19;;;;;;;4.05;3.08;;;;;;;;;;4952893;29;20043;-78
2021/11/04 14:31:46;;;;;;;3.85;3.40;;;;;;;;;;4950392;29;20192;-77
2021/11/04 14:34:12;;;;;;;4.05;2.65;;;;;;;;;;4951839;29;20046;-78
2021/11/04 14:36:38;;;;;;;3.85;2.40;;;;;;;;;;4953069;29;20389;-77
2021/11/04 14:39:04;;;;;;;3.75;2.80;;;;;;;;;;4941130;29;20050;-78
2021/11/04 14:41:30;;;;;;;3.05;2.72;;;;;;;;;;4933668;29;20051;-78
2021/11/04 14:46:32;;;;;;;3.17;2.97;;;;;;;;;;4987282;23;20055;-79